createdAt,value
2022-12-20T00:01:25.434Z,30.42
2022-12-20T00:03:53.966Z,33.47
2022-12-20T00:06:21.599Z,34.05
2022-12-20T00:08:53.766Z,32.80
2022-12-20T00:11:20.698Z,35.78
2022-12-20T00:13:47.608Z,33.75
2022-12-20T00:16:25.835Z,32.60
2022-12-20T00:21:20.358Z,33.65
2022-12-20T00:23:47.212Z,31.38
2022-12-20T00:26:18.027Z,31.33
2022-12-20T00:28:45.503Z,28.20
2022-12-20T00:31:14.747Z,26.15
2022-12-20T00:33:44.769Z,31.27
2022-12-20T00:36:11.554Z,32.35
2022-12-20T00:38:38.257Z,33.40
2022-12-20T00:41:06.891Z,30.73
2022-12-20T00:43:34.486Z,28.17
2022-12-20T00:46:01.726Z,29.98
2022-12-20T00:48:29.794Z,32.95
2022-12-20T00:51:07.827Z,29.95
2022-12-20T00:53:35.664Z,28.50
2022-12-20T00:56:03.399Z,29.67
2022-12-20T00:58:31.834Z,29.50
2022-12-20T01:00:58.573Z,25.00
2022-12-20T01:03:26.918Z,28.67
2022-12-20T01:05:59.360Z,29.25
2022-12-20T01:08:28.134Z,28.60
2022-12-20T01:11:03.220Z,27.10
2022-12-20T01:13:30.644Z,28.20
2022-12-20T01:16:03.426Z,30.27
2022-12-20T01:18:30.206Z,28.92
2022-12-20T01:21:02.482Z,28.02
2022-12-20T01:23:29.296Z,31.25
2022-12-20T01:25:58.627Z,33.33
2022-12-20T01:28:25.459Z,32.95
2022-12-20T01:30:52.245Z,27.13
2022-12-20T01:33:19.142Z,29.80
2022-12-20T01:36:00.004Z,28.95
2022-12-20T01:38:27.696Z,29.30
2022-12-20T01:40:54.977Z,29.38
2022-12-20T01:43:22.876Z,27.77
2022-12-20T01:45:50.743Z,29.13
2022-12-20T01:48:23.672Z,26.83
2022-12-20T01:50:51.491Z,30.00
2022-12-20T01:53:20.465Z,26.58
2022-12-20T01:55:47.891Z,27.80
2022-12-20T01:58:16.398Z,28.25
2022-12-20T02:00:43.322Z,25.85
2022-12-20T02:03:13.714Z,28.23
2022-12-20T02:05:47.759Z,27.55
2022-12-20T02:08:18.215Z,27.52
2022-12-20T02:10:47.896Z,29.75
2022-12-20T02:13:33.089Z,30.60
2022-12-20T02:16:00.303Z,30.27
2022-12-20T02:18:26.957Z,29.02
2022-12-20T02:21:08.347Z,30.02
2022-12-20T02:23:43.187Z,32.67
2022-12-20T02:26:15.969Z,26.00
2022-12-20T02:29:13.873Z,32.10
2022-12-20T02:31:47.088Z,28.35
2022-12-20T02:34:15.594Z,31.20
2022-12-20T02:36:42.357Z,29.05
2022-12-20T02:39:15.109Z,27.58
2022-12-20T02:41:47.374Z,31.05
2022-12-20T02:44:36.425Z,32.35
2022-12-20T02:47:06.116Z,27.85
2022-12-20T02:49:38.566Z,28.73
2022-12-20T02:52:06.421Z,29.38
2022-12-20T02:54:33.594Z,27.65
2022-12-20T02:57:15.678Z,26.45
2022-12-20T02:59:54.902Z,31.08
2022-12-20T03:02:23.587Z,25.13
2022-12-20T03:04:51.490Z,25.83
2022-12-20T03:07:18.220Z,26.15
2022-12-20T03:09:45.744Z,27.95
2022-12-20T03:12:14.126Z,25.88
2022-12-20T03:14:40.985Z,26.95
2022-12-20T03:17:08.490Z,24.85
2022-12-20T03:19:35.695Z,25.08
2022-12-20T03:22:02.426Z,25.45
2022-12-20T03:24:30.098Z,26.90
2022-12-20T03:26:56.860Z,29.38
2022-12-20T03:29:23.807Z,26.35
2022-12-20T03:31:50.470Z,23.85
2022-12-20T03:34:17.176Z,30.55
2022-12-20T03:36:44.130Z,26.98
2022-12-20T03:39:10.885Z,27.45
2022-12-20T03:41:37.755Z,25.70
2022-12-20T03:44:04.727Z,28.35
2022-12-20T03:46:31.474Z,27.08
2022-12-20T03:48:59.284Z,26.65
2022-12-20T03:51:25.963Z,27.73
2022-12-20T03:53:52.624Z,26.52
2022-12-20T03:56:19.421Z,24.48
2022-12-20T03:58:46.183Z,26.35
2022-12-20T04:01:21.867Z,26.13
2022-12-20T04:03:49.075Z,28.30
2022-12-20T04:06:16.224Z,28.60
2022-12-20T04:08:43.395Z,25.67
2022-12-20T04:11:16.470Z,26.85
2022-12-20T04:13:54.571Z,26.48
2022-12-20T04:16:25.286Z,25.67
2022-12-20T04:18:52.487Z,23.50
2022-12-20T04:21:24.719Z,24.77
2022-12-20T04:23:51.791Z,28.85
2022-12-20T04:26:18.928Z,27.17
2022-12-20T04:28:45.700Z,27.55
2022-12-20T04:31:15.088Z,27.70
2022-12-20T04:33:45.787Z,22.92
2022-12-20T04:36:12.506Z,28.23
2022-12-20T04:38:39.144Z,26.92
2022-12-20T04:41:06.179Z,26.10
2022-12-20T04:43:33.471Z,27.60
2022-12-20T04:46:00.388Z,25.70
2022-12-20T04:51:16.899Z,23.70
2022-12-20T04:53:50.040Z,27.15
2022-12-20T04:56:19.014Z,27.95
2022-12-20T04:58:46.744Z,25.40
2022-12-20T05:01:13.607Z,29.27
2022-12-20T05:03:41.062Z,29.42
2022-12-20T05:06:08.747Z,28.95
2022-12-20T05:08:36.300Z,28.30
2022-12-20T05:11:03.451Z,29.27
2022-12-20T05:13:30.428Z,27.55
2022-12-20T05:15:58.666Z,24.10
2022-12-20T05:18:27.089Z,25.25
2022-12-20T05:21:19.591Z,28.77
2022-12-20T05:24:16.729Z,28.80
2022-12-20T05:29:10.777Z,27.02
2022-12-20T05:31:37.824Z,25.75
2022-12-20T05:34:04.617Z,25.95
2022-12-20T05:36:31.318Z,26.73
2022-12-20T05:39:03.555Z,26.27
2022-12-20T05:41:30.804Z,30.75
2022-12-20T05:43:57.853Z,28.15
2022-12-20T05:46:24.908Z,30.25
2022-12-20T05:48:52.595Z,28.60
2022-12-20T05:51:19.274Z,25.38
2022-12-20T05:53:46.166Z,24.27
2022-12-20T05:56:12.936Z,30.10
2022-12-20T05:58:40.304Z,28.50
2022-12-20T06:01:08.608Z,27.58
2022-12-20T06:03:35.414Z,25.35
2022-12-20T06:06:02.206Z,29.00
2022-12-20T06:08:29.071Z,24.73
2022-12-20T06:10:56.053Z,25.70
2022-12-20T06:13:22.893Z,25.83
2022-12-20T06:15:49.641Z,23.67
2022-12-20T06:18:16.400Z,23.58
2022-12-20T06:20:43.210Z,26.02
2022-12-20T06:23:09.960Z,25.90
2022-12-20T06:25:38.189Z,25.58
2022-12-20T06:28:05.809Z,24.40
2022-12-20T06:30:34.233Z,22.70
2022-12-20T06:33:02.618Z,26.38
2022-12-20T06:35:30.221Z,27.10
2022-12-20T06:37:57.392Z,25.75
2022-12-20T06:40:24.803Z,26.65
2022-12-20T06:42:51.840Z,26.35
2022-12-20T06:45:18.831Z,26.88
2022-12-20T06:47:45.653Z,25.77
2022-12-20T06:50:12.763Z,28.38
2022-12-20T06:52:39.609Z,26.25
2022-12-20T06:55:06.671Z,26.10
2022-12-20T06:57:33.518Z,29.10
2022-12-20T07:00:00.296Z,29.63
2022-12-20T07:02:28.036Z,27.17
2022-12-20T07:04:55.223Z,29.08
2022-12-20T07:07:22.198Z,30.27
2022-12-20T07:09:48.940Z,27.70
2022-12-20T07:12:15.725Z,31.27
2022-12-20T07:14:42.425Z,29.42
2022-12-20T07:17:09.589Z,28.70
2022-12-20T07:19:37.028Z,31.98
2022-12-20T07:22:04.353Z,31.98
2022-12-20T07:24:31.403Z,30.75
2022-12-20T07:26:58.321Z,31.70
2022-12-20T07:29:25.781Z,30.02
2022-12-20T07:31:53.236Z,31.50
2022-12-20T07:34:20.202Z,36.88
2022-12-20T07:36:47.369Z,29.33
2022-12-20T07:39:14.072Z,29.65
2022-12-20T07:41:41.059Z,28.88
2022-12-20T07:44:07.981Z,33.17
2022-12-20T07:46:34.771Z,30.05
2022-12-20T07:49:01.754Z,28.98
2022-12-20T07:51:31.768Z,33.53
2022-12-20T07:54:12.527Z,33.33
2022-12-20T07:56:44.630Z,30.13
2022-12-20T08:01:43.622Z,30.40
2022-12-20T08:04:24.343Z,31.05
2022-12-20T08:06:54.045Z,26.33
2022-12-20T08:09:21.019Z,30.45
2022-12-20T08:11:48.849Z,32.80
2022-12-20T08:14:17.022Z,27.42
2022-12-20T08:16:43.832Z,33.90
2022-12-20T08:19:11.269Z,33.35
2022-12-20T08:21:38.220Z,31.67
2022-12-20T08:24:05.305Z,29.17
2022-12-20T08:26:31.971Z,30.00
2022-12-20T08:28:58.653Z,31.13
2022-12-20T08:31:25.481Z,30.67
2022-12-20T08:33:55.226Z,32.67
2022-12-20T08:36:22.790Z,32.83
2022-12-20T08:38:49.702Z,34.17
2022-12-20T08:41:16.837Z,27.52
2022-12-20T08:43:43.674Z,28.85
2022-12-20T08:46:12.226Z,31.88
2022-12-20T08:48:39.661Z,31.00
2022-12-20T08:51:09.053Z,32.72
2022-12-20T08:53:36.720Z,31.38
2022-12-20T08:56:11.959Z,33.70
2022-12-20T08:58:39.555Z,37.20
2022-12-20T09:01:09.364Z,30.45
2022-12-20T09:03:37.469Z,30.88
2022-12-20T09:06:10.035Z,36.08
2022-12-20T09:08:37.868Z,33.88
2022-12-20T09:11:06.916Z,31.23
2022-12-20T09:13:37.984Z,28.33
2022-12-20T09:16:09.224Z,30.08
2022-12-20T09:18:36.324Z,35.72
2022-12-20T09:21:11.408Z,35.85
2022-12-20T09:23:38.575Z,34.22
2022-12-20T09:26:07.884Z,32.58
2022-12-20T09:28:35.127Z,33.25
2022-12-20T09:31:05.297Z,36.78
2022-12-20T09:33:33.743Z,37.70
2022-12-20T09:36:01.853Z,32.88
2022-12-20T09:38:29.643Z,33.42
2022-12-20T09:41:00.454Z,33.97
2022-12-20T09:43:28.300Z,35.00
2022-12-20T09:45:58.304Z,36.80
2022-12-20T09:48:31.374Z,32.88
2022-12-20T09:51:10.344Z,31.10
2022-12-20T09:53:57.163Z,27.70
2022-12-20T09:56:32.073Z,32.00
2022-12-20T09:59:06.906Z,32.83
2022-12-20T10:01:39.578Z,31.27
2022-12-20T10:04:19.643Z,27.55
2022-12-20T10:07:27.982Z,27.00
2022-12-20T10:10:32.156Z,26.20
2022-12-20T10:13:14.120Z,28.65
2022-12-20T10:15:51.220Z,27.60
2022-12-20T10:18:24.735Z,28.00
2022-12-20T10:21:07.493Z,25.85
2022-12-20T10:23:44.221Z,26.40
2022-12-20T10:26:13.302Z,21.48
2022-12-20T10:28:41.236Z,23.65
2022-12-20T10:31:14.264Z,23.80
2022-12-20T10:33:41.493Z,24.48
2022-12-20T10:36:18.570Z,24.80
2022-12-20T10:38:48.233Z,26.80
2022-12-20T10:41:22.697Z,25.23
2022-12-20T10:43:53.183Z,25.23
2022-12-20T10:46:20.071Z,22.25
2022-12-20T10:48:48.651Z,22.50
2022-12-20T10:51:19.207Z,22.13
2022-12-20T10:54:04.057Z,21.13
2022-12-20T10:56:31.032Z,27.08
2022-12-20T10:59:31.740Z,21.10
2022-12-20T11:01:58.671Z,22.58
2022-12-20T11:04:35.935Z,20.83
2022-12-20T11:07:21.597Z,21.10
2022-12-20T11:09:56.746Z,17.48
2022-12-20T11:12:23.739Z,19.58
2022-12-20T11:14:50.746Z,22.67
2022-12-20T11:17:29.423Z,18.20
2022-12-20T11:20:02.453Z,18.33
2022-12-20T11:22:43.551Z,18.10
2022-12-20T11:25:35.152Z,16.17
2022-12-20T11:28:41.073Z,21.27
2022-12-20T11:31:25.951Z,15.27
2022-12-20T11:34:50.195Z,18.55
2022-12-20T11:37:24.283Z,15.98
2022-12-20T11:39:56.566Z,18.08
2022-12-20T11:42:42.239Z,22.20
2022-12-20T11:45:33.785Z,18.92
2022-12-20T11:48:30.859Z,17.00
2022-12-20T11:51:04.391Z,16.75
2022-12-20T11:53:42.167Z,15.57
2022-12-20T11:56:38.659Z,17.17
2022-12-20T11:59:28.908Z,16.55
2022-12-20T12:02:22.243Z,17.30
2022-12-20T12:05:16.816Z,14.20
2022-12-20T12:07:49.275Z,15.20
2022-12-20T12:10:23.699Z,15.07
2022-12-20T12:13:17.959Z,14.55
2022-12-20T12:16:03.812Z,16.83
2022-12-20T12:18:35.946Z,17.27
2022-12-20T12:21:19.523Z,15.00
2022-12-20T12:23:59.920Z,14.77
2022-12-20T12:26:36.368Z,15.85
2022-12-20T12:29:09.055Z,16.00
2022-12-20T12:31:45.857Z,16.35
2022-12-20T12:34:31.062Z,17.00
2022-12-20T12:37:19.788Z,15.15
2022-12-20T12:40:20.498Z,13.88
2022-12-20T12:43:11.928Z,15.95
2022-12-20T12:45:50.462Z,17.65
2022-12-20T12:48:31.889Z,14.30
2022-12-20T12:50:59.391Z,16.30
2022-12-20T12:53:45.123Z,13.35
2022-12-20T12:56:43.344Z,14.40
2022-12-20T12:59:33.079Z,12.73
2022-12-20T13:02:05.947Z,13.18
2022-12-20T13:04:51.831Z,14.45
2022-12-20T13:07:44.922Z,14.32
2022-12-20T13:10:14.685Z,14.32
2022-12-20T13:12:41.472Z,14.82
2022-12-20T13:15:20.426Z,12.95
2022-12-20T13:17:51.507Z,15.95
2022-12-20T13:20:36.023Z,13.63
2022-12-20T13:23:08.766Z,15.95
2022-12-20T13:25:38.400Z,15.23
2022-12-20T13:28:23.602Z,14.90
2022-12-20T13:30:53.368Z,13.32
2022-12-20T13:33:48.517Z,12.55
2022-12-20T13:36:36.284Z,15.40
2022-12-20T13:39:23.414Z,15.45
2022-12-20T13:42:11.869Z,15.70
2022-12-20T13:44:45.586Z,13.10
2022-12-20T13:47:31.229Z,17.13
2022-12-20T13:50:18.343Z,11.63
2022-12-20T13:52:45.436Z,13.77
2022-12-20T13:55:23.201Z,14.77
2022-12-20T13:57:51.657Z,13.63
2022-12-20T14:00:25.672Z,18.88
2022-12-20T14:02:54.437Z,13.55
2022-12-20T14:05:26.513Z,15.00
2022-12-20T14:08:00.930Z,13.82
2022-12-20T14:10:30.589Z,15.55
2022-12-20T14:12:57.660Z,16.40
2022-12-20T14:15:34.199Z,14.32
2022-12-20T14:18:18.026Z,15.45
2022-12-20T14:20:45.687Z,15.38
2022-12-20T14:23:19.652Z,17.42
2022-12-20T14:25:54.868Z,13.52
2022-12-20T14:28:35.513Z,13.20
2022-12-20T14:31:03.413Z,17.40
2022-12-20T14:33:33.939Z,19.80
2022-12-20T14:36:15.917Z,16.25
2022-12-20T14:38:45.486Z,15.55
2022-12-20T14:41:38.113Z,17.05
2022-12-20T14:44:07.929Z,16.95
2022-12-20T14:46:35.973Z,17.77
2022-12-20T14:49:21.984Z,15.65
2022-12-20T14:51:49.189Z,15.73
2022-12-20T14:57:29.324Z,15.18
2022-12-20T15:00:14.903Z,15.77
2022-12-20T15:02:59.457Z,15.70
2022-12-20T15:05:35.991Z,14.63
2022-12-20T15:08:28.797Z,16.13
2022-12-20T15:11:01.160Z,20.83
2022-12-20T15:13:33.126Z,17.75
2022-12-20T15:16:05.295Z,16.98
2022-12-20T15:18:32.274Z,18.70
2022-12-20T15:21:05.610Z,17.92
2022-12-20T15:23:32.640Z,16.13
2022-12-20T15:25:59.329Z,16.67
2022-12-20T15:28:27.218Z,17.88
2022-12-20T15:30:55.409Z,17.63
2022-12-20T15:33:27.724Z,16.63
2022-12-20T15:35:54.786Z,19.30
2022-12-20T15:38:40.692Z,19.45
2022-12-20T15:41:14.490Z,16.08
2022-12-20T15:43:41.400Z,15.93
2022-12-20T15:46:08.468Z,17.85
2022-12-20T15:48:35.307Z,17.85
2022-12-20T15:51:03.128Z,16.05
2022-12-20T15:53:34.304Z,16.25
2022-12-20T15:56:01.301Z,20.67
2022-12-20T15:58:28.026Z,18.65
2022-12-20T16:00:58.691Z,16.85
2022-12-20T16:03:30.259Z,17.23
2022-12-20T16:05:57.762Z,16.33
2022-12-20T16:08:24.822Z,17.85
2022-12-20T16:10:52.236Z,21.27
2022-12-20T16:13:24.233Z,15.90
2022-12-20T16:15:52.576Z,19.02
2022-12-20T16:18:19.757Z,18.60
2022-12-20T16:20:46.555Z,16.88
2022-12-20T16:23:22.712Z,14.48
2022-12-20T16:25:50.920Z,18.05
2022-12-20T16:28:17.977Z,17.92
2022-12-20T16:30:50.951Z,15.82
2022-12-20T16:33:21.464Z,17.38
2022-12-20T16:35:48.195Z,20.77
2022-12-20T16:38:15.203Z,17.83
2022-12-20T16:40:42.076Z,16.40
2022-12-20T16:43:13.984Z,18.73
2022-12-20T16:48:08.255Z,20.23
2022-12-20T16:50:41.645Z,16.65
2022-12-20T16:53:14.344Z,20.98
2022-12-20T16:55:41.269Z,20.15
2022-12-20T16:58:08.236Z,21.40
2022-12-20T17:00:37.246Z,18.02
2022-12-20T17:03:04.681Z,16.17
2022-12-20T17:05:35.287Z,21.58
2022-12-20T17:08:03.718Z,18.02
2022-12-20T17:10:30.657Z,19.52
2022-12-20T17:12:57.860Z,19.40
2022-12-20T17:15:30.567Z,18.40
2022-12-20T17:17:58.373Z,18.23
2022-12-20T17:20:25.389Z,16.48
2022-12-20T17:22:54.576Z,17.45
2022-12-20T17:25:23.198Z,20.00
2022-12-20T17:27:51.053Z,21.48
2022-12-20T17:30:18.772Z,22.95
2022-12-20T17:32:45.899Z,20.73
2022-12-20T17:35:30.648Z,20.35
2022-12-20T17:37:58.899Z,24.55
2022-12-20T17:40:26.937Z,22.08
2022-12-20T17:42:54.698Z,20.77
2022-12-20T17:45:31.544Z,23.60
2022-12-20T17:47:59.146Z,20.33
2022-12-20T17:50:26.570Z,19.15
2022-12-20T17:52:55.132Z,20.58
2022-12-20T17:55:25.329Z,20.90
2022-12-20T17:57:53.246Z,19.35
2022-12-20T18:00:30.615Z,21.33
2022-12-20T18:03:01.581Z,25.48
2022-12-20T18:05:30.464Z,17.60
2022-12-20T18:07:57.168Z,21.35
2022-12-20T18:10:24.011Z,20.52
2022-12-20T18:12:53.883Z,18.92
2022-12-20T18:15:21.768Z,20.70
2022-12-20T18:17:48.545Z,20.98
2022-12-20T18:20:15.606Z,19.60
2022-12-20T18:22:45.734Z,21.25
2022-12-20T18:25:13.947Z,21.45
2022-12-20T18:27:42.577Z,25.83
2022-12-20T18:30:10.509Z,21.25
2022-12-20T18:32:37.328Z,22.38
2022-12-20T18:35:04.341Z,21.98
2022-12-20T18:37:31.139Z,20.23
2022-12-20T18:39:57.884Z,19.83
2022-12-20T18:42:24.769Z,18.55
2022-12-20T18:44:51.513Z,16.90
2022-12-20T18:47:18.389Z,17.00
2022-12-20T18:49:45.121Z,18.45
2022-12-20T18:52:11.963Z,19.98
2022-12-20T18:54:39.138Z,23.10
2022-12-20T18:57:06.534Z,21.50
2022-12-20T18:59:34.488Z,18.33
2022-12-20T19:02:01.561Z,20.02
2022-12-20T19:04:28.604Z,20.63
2022-12-20T19:06:55.427Z,18.65
2022-12-20T19:09:22.800Z,18.92
2022-12-20T19:11:56.288Z,19.60
2022-12-20T19:14:23.702Z,18.20
2022-12-20T19:16:51.805Z,21.48
2022-12-20T19:19:19.174Z,18.45
2022-12-20T19:21:49.204Z,18.77
2022-12-20T19:24:16.012Z,19.02
2022-12-20T19:26:44.763Z,18.90
2022-12-20T19:29:12.008Z,19.00
2022-12-20T19:31:39.092Z,18.30
2022-12-20T19:34:11.628Z,18.02
2022-12-20T19:36:41.662Z,19.20
2022-12-20T19:39:17.068Z,17.13
2022-12-20T19:41:50.733Z,20.05
2022-12-20T19:44:27.082Z,18.95
2022-12-20T19:46:55.035Z,17.45
2022-12-20T19:49:22.159Z,20.55
2022-12-20T19:51:49.395Z,19.65
2022-12-20T19:54:16.192Z,19.08
2022-12-20T19:56:46.744Z,16.73
2022-12-20T19:59:13.952Z,20.45
2022-12-20T20:01:41.354Z,20.95
2022-12-20T20:04:13.135Z,16.80
2022-12-20T20:06:39.836Z,17.63
2022-12-20T20:09:08.117Z,18.08
2022-12-20T20:11:34.800Z,20.67
2022-12-20T20:14:05.430Z,22.50
2022-12-20T20:16:33.118Z,21.90
2022-12-20T20:19:00.256Z,18.05
2022-12-20T20:21:27.269Z,17.45
2022-12-20T20:23:55.323Z,21.13
2022-12-20T20:26:30.032Z,18.65
2022-12-20T20:28:57.073Z,22.80
2022-12-20T20:31:24.383Z,16.38
2022-12-20T20:33:51.273Z,17.73
2022-12-20T20:36:23.332Z,17.85
2022-12-20T20:38:52.554Z,18.80
2022-12-20T20:41:19.924Z,18.00
2022-12-20T20:43:46.672Z,18.98
2022-12-20T20:46:15.464Z,16.80
2022-12-20T20:48:43.441Z,18.25
2022-12-20T20:51:13.854Z,16.70
2022-12-20T20:53:41.237Z,15.23
2022-12-20T20:56:08.910Z,19.75
2022-12-20T20:58:36.543Z,14.45
2022-12-20T21:01:05.208Z,17.98
2022-12-20T21:03:32.464Z,18.70
2022-12-20T21:08:46.404Z,18.27
2022-12-20T21:11:13.394Z,18.77
2022-12-20T21:13:40.421Z,17.25
2022-12-20T21:16:20.168Z,15.93
2022-12-20T21:18:54.763Z,17.08
2022-12-20T21:21:22.937Z,18.08
2022-12-20T21:23:50.156Z,19.50
2022-12-20T21:26:18.459Z,17.42
2022-12-20T21:28:45.982Z,17.83
2022-12-20T21:31:16.061Z,19.52
2022-12-20T21:33:43.229Z,21.13
2022-12-20T21:36:18.617Z,20.02
2022-12-20T21:38:50.449Z,21.42
2022-12-20T21:41:18.412Z,21.58
2022-12-20T21:43:45.711Z,22.90
2022-12-20T21:46:12.631Z,23.63
2022-12-20T21:48:41.237Z,21.20
2022-12-20T21:51:14.510Z,26.83
2022-12-20T21:53:50.151Z,21.05
2022-12-20T21:56:17.963Z,26.77
2022-12-20T21:58:45.975Z,25.98
2022-12-20T22:01:17.047Z,29.95
2022-12-20T22:03:46.998Z,28.42
2022-12-20T22:06:13.710Z,26.95
2022-12-20T22:08:40.536Z,26.50
2022-12-20T22:11:09.847Z,29.33
2022-12-20T22:13:41.646Z,33.03
2022-12-20T22:16:12.368Z,29.05
2022-12-20T22:18:40.512Z,27.85
2022-12-20T22:21:09.984Z,30.00
2022-12-20T22:23:37.537Z,31.95
2022-12-20T22:26:15.341Z,32.30
2022-12-20T22:28:54.270Z,32.20
2022-12-20T22:31:22.060Z,27.83
2022-12-20T22:33:49.414Z,30.13
2022-12-20T22:36:16.869Z,31.45
2022-12-20T22:38:44.722Z,32.20
2022-12-20T22:41:21.008Z,30.20
2022-12-20T22:43:48.196Z,31.58
2022-12-20T22:46:17.585Z,31.02
2022-12-20T22:48:45.369Z,35.22
2022-12-20T22:51:18.638Z,34.03
2022-12-20T22:53:47.520Z,33.28
2022-12-20T22:56:16.285Z,39.50
2022-12-20T22:58:43.172Z,33.13
2022-12-20T23:01:12.566Z,31.75
2022-12-20T23:03:39.975Z,34.03
2022-12-20T23:06:09.057Z,33.30
2022-12-20T23:08:37.185Z,32.05
2022-12-20T23:11:25.646Z,34.15
2022-12-20T23:14:10.897Z,29.80
2022-12-20T23:16:38.572Z,29.90
2022-12-20T23:19:05.428Z,30.50
2022-12-20T23:21:50.830Z,30.65
2022-12-20T23:24:17.717Z,30.13
2022-12-20T23:26:44.719Z,31.67
2022-12-20T23:29:11.785Z,29.95
2022-12-20T23:31:38.528Z,28.88
2022-12-20T23:34:05.713Z,29.52
2022-12-20T23:36:33.324Z,32.80
2022-12-20T23:39:00.524Z,29.27
2022-12-20T23:41:27.619Z,28.15
2022-12-20T23:43:54.439Z,27.30
2022-12-20T23:46:24.177Z,27.25
2022-12-20T23:48:51.869Z,26.45
2022-12-20T23:51:19.333Z,28.98
2022-12-20T23:53:46.094Z,27.40
2022-12-20T23:56:18.674Z,27.23
2022-12-20T23:58:46.329Z,29.10
